createdAt,value
2024-04-14T00:01:05.243Z,52.33
2024-04-14T00:03:27.173Z,55.33
2024-04-14T00:05:29.268Z,47.67
2024-04-14T00:07:31.230Z,55.00
2024-04-14T00:09:33.477Z,51.33
2024-04-14T00:11:35.470Z,53.00
2024-04-14T00:13:37.325Z,52.33
2024-04-14T00:15:39.283Z,53.33
2024-04-14T00:17:41.358Z,51.33
2024-04-14T00:19:43.781Z,47.67
2024-04-14T00:21:46.610Z,46.67
2024-04-14T00:23:48.968Z,46.00
2024-04-14T00:25:50.808Z,46.33
2024-04-14T00:27:52.879Z,47.00
2024-04-14T00:29:54.851Z,47.00
2024-04-14T00:31:56.754Z,43.00
2024-04-14T00:33:58.717Z,41.33
2024-04-14T00:36:00.733Z,44.33
2024-04-14T00:38:02.720Z,48.00
2024-04-14T00:40:05.004Z,44.33
2024-04-14T00:42:06.974Z,41.67
2024-04-14T00:44:08.849Z,42.67
2024-04-14T00:46:10.896Z,46.00
2024-04-14T00:48:13.868Z,28.67
2024-04-14T00:50:17.363Z,44.00
2024-04-14T00:52:19.353Z,42.67
2024-04-14T00:54:22.121Z,35.00
2024-04-14T00:56:24.777Z,50.33
2024-04-14T00:58:27.941Z,47.00
2024-04-14T01:00:30.936Z,46.00
2024-04-14T01:02:33.059Z,50.33
2024-04-14T01:04:35.191Z,47.67
2024-04-14T01:06:37.796Z,51.33
2024-04-14T01:08:39.758Z,45.33
2024-04-14T01:10:42.102Z,47.67
2024-04-14T01:12:44.916Z,44.00
2024-04-14T01:14:46.866Z,39.00
2024-04-14T01:16:49.328Z,47.33
2024-04-14T01:18:51.528Z,45.00
2024-04-14T01:20:53.353Z,48.00
2024-04-14T01:22:55.301Z,51.00
2024-04-14T01:25:08.145Z,41.00
2024-04-14T01:27:12.574Z,43.00
2024-04-14T01:29:16.788Z,35.00
2024-04-14T01:31:18.995Z,57.67
2024-04-14T01:33:20.938Z,47.67
2024-04-14T01:35:22.790Z,44.33
2024-04-14T01:37:24.757Z,45.00
2024-04-14T01:39:26.677Z,46.33
2024-04-14T01:41:28.521Z,44.33
2024-04-14T01:43:31.014Z,48.67
2024-04-14T01:45:33.297Z,59.67
2024-04-14T01:47:35.405Z,55.67
2024-04-14T01:49:37.790Z,52.67
2024-04-14T01:51:39.709Z,28.00
2024-04-14T01:53:41.742Z,61.67
2024-04-14T01:55:47.686Z,57.33
2024-04-14T01:57:49.633Z,50.00
2024-04-14T01:59:51.510Z,46.67
2024-04-14T02:01:53.581Z,53.33
2024-04-14T02:03:55.606Z,51.67
2024-04-14T02:05:58.432Z,46.00
2024-04-14T02:08:00.445Z,50.67
2024-04-14T02:10:04.036Z,51.00
2024-04-14T02:12:06.463Z,54.67
2024-04-14T02:14:08.526Z,56.67
2024-04-14T02:16:10.717Z,53.67
2024-04-14T02:18:12.825Z,50.67
2024-04-14T02:20:14.830Z,48.00
2024-04-14T02:22:16.689Z,45.00
2024-04-14T02:24:18.572Z,52.00
2024-04-14T02:26:21.165Z,48.00
2024-04-14T02:28:23.206Z,62.00
2024-04-14T02:30:25.056Z,47.67
2024-04-14T02:32:26.996Z,48.33
2024-04-14T02:34:28.880Z,51.00
2024-04-14T02:36:30.818Z,52.67
2024-04-14T02:38:33.002Z,49.00
2024-04-14T02:40:34.929Z,48.00
2024-04-14T02:42:36.860Z,44.00
2024-04-14T02:44:38.862Z,48.33
2024-04-14T02:46:40.734Z,50.33
2024-04-14T02:48:49.701Z,39.00
2024-04-14T02:50:51.720Z,48.33
2024-04-14T02:52:53.630Z,44.00
2024-04-14T02:54:56.245Z,43.67
2024-04-14T02:56:58.594Z,36.33
2024-04-14T02:59:00.448Z,42.33
2024-04-14T03:01:03.599Z,45.00
2024-04-14T03:03:06.139Z,48.33
2024-04-14T03:05:08.067Z,43.00
2024-04-14T03:07:09.946Z,46.33
2024-04-14T03:09:11.881Z,45.00
2024-04-14T03:11:13.924Z,44.33
2024-04-14T03:13:15.833Z,44.33
2024-04-14T03:15:17.982Z,36.67
2024-04-14T03:17:22.367Z,44.33
2024-04-14T03:19:24.392Z,42.33
2024-04-14T03:21:26.386Z,40.33
2024-04-14T03:23:28.847Z,41.33
2024-04-14T03:25:30.781Z,32.00
2024-04-14T03:27:32.788Z,42.67
2024-04-14T03:29:35.019Z,38.33
2024-04-14T03:31:36.958Z,43.33
2024-04-14T03:33:39.101Z,39.00
2024-04-14T03:35:41.194Z,39.33
2024-04-14T03:37:43.364Z,35.00
2024-04-14T03:39:45.362Z,34.33
2024-04-14T03:41:47.223Z,41.67
2024-04-14T03:43:49.499Z,37.33
2024-04-14T03:45:51.776Z,43.00
2024-04-14T03:47:53.870Z,39.00
2024-04-14T03:49:55.873Z,31.00
2024-04-14T03:51:57.951Z,35.67
2024-04-14T03:53:59.869Z,38.33
2024-04-14T03:56:01.688Z,33.67
2024-04-14T03:58:03.705Z,32.33
2024-04-14T04:00:07.003Z,43.33
2024-04-14T04:02:09.422Z,36.67
2024-04-14T04:04:11.473Z,41.33
2024-04-14T04:06:13.769Z,35.33
2024-04-14T04:08:15.633Z,44.33
2024-04-14T04:10:17.823Z,38.00
2024-04-14T04:12:20.013Z,28.33
2024-04-14T04:14:21.908Z,32.67
2024-04-14T04:16:23.828Z,31.67
2024-04-14T04:18:27.309Z,34.33
2024-04-14T04:20:29.333Z,31.33
2024-04-14T04:22:31.610Z,30.67
2024-04-14T04:24:34.121Z,35.67
2024-04-14T04:26:36.005Z,41.33
2024-04-14T04:28:37.913Z,32.67
2024-04-14T04:30:39.954Z,31.00
2024-04-14T04:32:41.889Z,36.33
2024-04-14T04:34:45.211Z,35.67
2024-04-14T04:36:47.205Z,37.33
2024-04-14T04:38:49.404Z,39.33
2024-04-14T04:40:52.922Z,43.67
2024-04-14T04:42:54.958Z,37.00
2024-04-14T04:44:56.926Z,34.33
2024-04-14T04:46:58.819Z,36.00
2024-04-14T04:49:00.828Z,35.67
2024-04-14T04:51:03.070Z,30.00
2024-04-14T04:53:05.263Z,30.33
2024-04-14T04:55:07.401Z,28.00
2024-04-14T04:57:09.258Z,41.33
2024-04-14T04:59:11.097Z,34.33
2024-04-14T05:01:13.130Z,35.00
2024-04-14T05:03:15.140Z,30.33
2024-04-14T05:05:17.207Z,33.00
2024-04-14T05:07:19.104Z,38.67
2024-04-14T05:09:21.020Z,55.67
2024-04-14T05:11:22.974Z,56.33
2024-04-14T05:13:26.083Z,50.00
2024-04-14T05:15:28.003Z,56.67
2024-04-14T05:17:29.957Z,48.00
2024-04-14T05:19:31.959Z,41.33
2024-04-14T05:21:34.030Z,43.00
2024-04-14T05:23:35.998Z,40.33
2024-04-14T05:25:38.791Z,33.67
2024-04-14T05:27:40.982Z,26.67
2024-04-14T05:29:47.183Z,22.33
2024-04-14T05:31:49.169Z,23.33
2024-04-14T05:33:55.702Z,20.33
2024-04-14T05:35:58.896Z,22.00
2024-04-14T05:38:00.872Z,21.50
2024-04-14T05:40:02.825Z,20.00
2024-04-14T05:42:05.251Z,25.00
2024-04-14T05:44:07.545Z,31.00
2024-04-14T05:46:09.893Z,30.00
2024-04-14T05:48:11.996Z,23.50
2024-04-14T05:50:14.243Z,24.00
2024-04-14T05:52:16.120Z,19.00
2024-04-14T05:54:18.094Z,19.00
2024-04-14T05:56:19.989Z,14.75
2024-04-14T05:58:21.851Z,22.00
2024-04-14T06:00:23.730Z,20.25
2024-04-14T06:02:25.666Z,16.75
2024-04-14T06:04:27.704Z,19.00
2024-04-14T06:06:29.701Z,17.00
2024-04-14T06:08:31.750Z,14.75
2024-04-14T06:10:33.781Z,19.00
2024-04-14T06:12:35.652Z,15.50
2024-04-14T06:14:37.548Z,13.00
2024-04-14T06:16:39.668Z,14.00
2024-04-14T06:18:41.748Z,9.25
2024-04-14T06:20:43.717Z,10.00
2024-04-14T06:22:45.758Z,7.25
2024-04-14T06:24:47.844Z,8.00
2024-04-14T06:26:49.828Z,8.00
2024-04-14T06:28:51.765Z,3.75
2024-04-14T06:30:53.676Z,5.75
2024-04-14T06:32:55.645Z,4.50
2024-04-14T06:34:57.713Z,7.25
2024-04-14T06:36:59.623Z,7.00
2024-04-14T06:39:01.483Z,6.25
2024-04-14T06:41:04.403Z,5.00
2024-04-14T06:43:06.551Z,5.00
2024-04-14T06:45:08.605Z,6.50
2024-04-14T06:47:10.506Z,5.75
2024-04-14T06:49:12.360Z,5.75
2024-04-14T06:51:14.302Z,6.00
2024-04-14T06:53:16.230Z,5.75
2024-04-14T06:55:20.204Z,5.50
2024-04-14T06:57:22.063Z,5.25
2024-04-14T06:59:23.986Z,3.75
2024-04-14T07:01:25.938Z,6.75
2024-04-14T07:03:28.079Z,6.00
2024-04-14T07:05:30.146Z,6.00
2024-04-14T07:07:34.639Z,4.75
2024-04-14T07:09:38.055Z,3.25
2024-04-14T07:11:40.193Z,3.75
2024-04-14T07:13:42.374Z,5.00
2024-04-14T07:15:44.339Z,4.50
2024-04-14T07:17:46.229Z,4.25
2024-04-14T07:19:48.107Z,7.00
2024-04-14T07:21:50.001Z,5.00
2024-04-14T07:23:51.889Z,6.00
2024-04-14T07:25:53.778Z,8.00
2024-04-14T07:27:55.717Z,3.50
2024-04-14T07:29:57.582Z,7.25
2024-04-14T07:31:59.439Z,5.00
2024-04-14T07:34:03.329Z,6.00
2024-04-14T07:36:05.866Z,3.25
2024-04-14T07:38:08.102Z,7.00
2024-04-14T07:40:10.784Z,6.25
2024-04-14T07:42:12.807Z,5.75
2024-04-14T07:44:14.679Z,5.75
2024-04-14T07:46:16.571Z,6.50
2024-04-14T07:48:18.585Z,0.00
2024-04-14T07:50:20.631Z,7.00
2024-04-14T07:52:22.474Z,8.25
2024-04-14T07:54:24.678Z,6.50
2024-04-14T07:56:26.614Z,5.25
2024-04-14T07:58:28.803Z,7.75
2024-04-14T08:00:30.931Z,8.50
2024-04-14T08:02:33.116Z,7.25
2024-04-14T08:04:35.210Z,2.00
2024-04-14T08:06:37.578Z,7.00
2024-04-14T08:08:39.670Z,6.75
2024-04-14T08:10:41.650Z,5.00
2024-04-14T08:12:43.617Z,6.25
2024-04-14T08:14:45.527Z,5.50
2024-04-14T08:16:47.432Z,4.25
2024-04-14T08:18:49.668Z,5.25
2024-04-14T08:20:59.924Z,6.50
2024-04-14T08:23:01.806Z,6.75
2024-04-14T08:25:04.554Z,7.25
2024-04-14T08:27:06.623Z,7.00
2024-04-14T08:29:08.495Z,6.75
2024-04-14T08:31:10.383Z,7.00
2024-04-14T08:33:12.459Z,10.00
2024-04-14T08:35:14.371Z,6.25
2024-04-14T08:37:18.890Z,9.75
2024-04-14T08:39:22.574Z,8.25
2024-04-14T08:41:28.991Z,9.00
2024-04-14T08:43:31.031Z,3.25
2024-04-14T08:45:34.245Z,8.00
2024-04-14T08:47:37.573Z,7.00
2024-04-14T08:49:40.901Z,9.75
2024-04-14T08:51:42.833Z,6.00
2024-04-14T08:53:45.915Z,10.50
2024-04-14T08:55:48.079Z,9.25
2024-04-14T08:57:50.172Z,8.00
2024-04-14T08:59:52.607Z,8.00
2024-04-14T09:01:54.772Z,7.25
2024-04-14T09:03:56.818Z,9.25
2024-04-14T09:06:04.268Z,9.25
2024-04-14T09:08:06.579Z,9.75
2024-04-14T09:10:09.107Z,8.25
2024-04-14T09:12:12.656Z,8.75
2024-04-14T09:14:14.530Z,9.00
2024-04-14T09:16:19.385Z,7.50
2024-04-14T09:18:21.433Z,6.25
2024-04-14T09:20:23.314Z,9.00
2024-04-14T09:22:25.627Z,9.00
2024-04-14T09:24:31.184Z,6.25
2024-04-14T09:26:33.416Z,7.25
2024-04-14T09:28:36.499Z,7.75
2024-04-14T09:30:39.400Z,8.75
2024-04-14T09:32:42.010Z,7.00
2024-04-14T09:34:44.493Z,6.75
2024-04-14T09:36:49.199Z,12.00
2024-04-14T09:38:55.457Z,9.00
2024-04-14T09:40:58.209Z,5.50
2024-04-14T09:43:01.550Z,8.50
2024-04-14T09:45:07.688Z,7.75
2024-04-14T09:47:10.130Z,8.00
2024-04-14T09:49:13.168Z,6.75
2024-04-14T09:51:16.166Z,6.75
2024-04-14T09:53:20.545Z,9.75
2024-04-14T09:55:22.511Z,8.00
2024-04-14T09:57:24.522Z,7.00
2024-04-14T09:59:26.434Z,5.00
2024-04-14T10:01:40.355Z,6.75
2024-04-14T10:03:46.187Z,2.00
2024-04-14T10:05:50.335Z,6.25
2024-04-14T10:07:52.319Z,7.50
2024-04-14T10:09:57.240Z,8.00
2024-04-14T10:12:01.490Z,8.50
2024-04-14T10:14:03.523Z,6.00
2024-04-14T10:16:08.297Z,7.25
2024-04-14T10:18:17.306Z,6.00
2024-04-14T10:20:19.403Z,7.00
2024-04-14T10:22:22.978Z,6.50
2024-04-14T10:24:25.039Z,7.50
2024-04-14T10:26:30.939Z,4.50
2024-04-14T10:28:33.206Z,4.25
2024-04-14T10:30:35.341Z,6.75
2024-04-14T10:32:37.456Z,7.75
2024-04-14T10:34:39.446Z,9.00
2024-04-14T10:36:42.713Z,7.25
2024-04-14T10:38:48.323Z,8.25
2024-04-14T10:40:50.438Z,6.50
2024-04-14T10:42:53.022Z,7.75
2024-04-14T10:44:55.211Z,6.50
2024-04-14T10:46:58.093Z,7.00
2024-04-14T10:49:00.137Z,9.25
2024-04-14T10:51:03.291Z,8.50
2024-04-14T10:53:05.487Z,9.75
2024-04-14T10:55:07.671Z,6.00
2024-04-14T10:57:10.365Z,6.50
2024-04-14T10:59:13.733Z,6.75
2024-04-14T11:01:16.440Z,7.80
2024-04-14T11:03:19.462Z,7.00
2024-04-14T11:05:24.270Z,11.00
2024-04-14T11:07:26.340Z,9.25
2024-04-14T11:09:30.548Z,6.75
2024-04-14T11:11:32.804Z,7.25
2024-04-14T11:13:35.900Z,4.50
2024-04-14T11:15:41.127Z,5.25
2024-04-14T11:17:43.839Z,7.00
2024-04-14T11:19:46.676Z,9.75
2024-04-14T11:21:48.727Z,7.25
2024-04-14T11:23:51.003Z,8.00
2024-04-14T11:25:53.246Z,8.00
2024-04-14T11:27:56.276Z,6.75
2024-04-14T11:29:58.581Z,7.75
2024-04-14T11:32:09.198Z,7.00
2024-04-14T11:34:12.857Z,6.50
2024-04-14T11:36:15.484Z,6.75
2024-04-14T11:38:17.652Z,8.00
2024-04-14T11:40:22.650Z,8.75
2024-04-14T11:42:27.844Z,6.00
2024-04-14T11:44:29.775Z,4.75
2024-04-14T11:46:31.798Z,7.00
2024-04-14T11:48:33.906Z,7.75
2024-04-14T11:50:36.480Z,5.75
2024-04-14T11:52:38.473Z,7.00
2024-04-14T11:54:40.478Z,5.00
2024-04-14T11:56:42.477Z,3.75
2024-04-14T11:58:44.358Z,7.00
2024-04-14T12:00:46.340Z,5.50
2024-04-14T12:02:48.390Z,1.50
2024-04-14T12:04:52.684Z,6.60
2024-04-14T12:06:55.425Z,7.75
2024-04-14T12:08:57.788Z,7.00
2024-04-14T12:11:00.368Z,5.50
2024-04-14T12:13:02.545Z,7.25
2024-04-14T12:15:06.061Z,9.25
2024-04-14T12:17:08.779Z,8.00
2024-04-14T12:19:10.766Z,7.75
2024-04-14T12:21:12.782Z,8.00
2024-04-14T12:23:14.647Z,8.00
2024-04-14T12:25:16.679Z,8.50
2024-04-14T12:27:18.563Z,7.75
2024-04-14T12:29:20.509Z,7.25
2024-04-14T12:31:22.543Z,9.75
2024-04-14T12:33:24.576Z,9.50
2024-04-14T12:35:26.462Z,8.75
2024-04-14T12:37:28.415Z,7.75
2024-04-14T12:39:32.234Z,7.00
2024-04-14T12:41:34.935Z,8.25
2024-04-14T12:43:36.824Z,9.50
2024-04-14T12:45:43.198Z,7.00
2024-04-14T12:47:45.224Z,10.00
2024-04-14T12:49:47.162Z,7.25
2024-04-14T12:51:49.151Z,9.50
2024-04-14T12:53:51.176Z,8.00
2024-04-14T12:55:53.021Z,7.00
2024-04-14T12:57:54.977Z,7.00
2024-04-14T12:59:56.974Z,7.00
2024-04-14T13:01:58.964Z,11.00
2024-04-14T13:04:01.088Z,8.00
2024-04-14T13:06:03.060Z,11.00
2024-04-14T13:08:05.285Z,5.75
2024-04-14T13:10:07.950Z,8.25
2024-04-14T13:12:11.354Z,8.75
2024-04-14T13:14:13.488Z,4.75
2024-04-14T13:16:15.510Z,9.25
2024-04-14T13:18:17.564Z,7.25
2024-04-14T13:20:19.426Z,8.00
2024-04-14T13:22:21.257Z,7.00
2024-04-14T13:24:23.224Z,8.00
2024-04-14T13:26:25.308Z,7.75
2024-04-14T13:28:31.902Z,6.75
2024-04-14T13:30:33.948Z,8.75
2024-04-14T13:32:36.579Z,6.00
2024-04-14T13:34:39.058Z,8.75
2024-04-14T13:36:40.919Z,7.00
2024-04-14T13:38:42.866Z,9.50
2024-04-14T13:40:44.840Z,7.00
2024-04-14T13:42:46.719Z,8.00
2024-04-14T13:44:48.638Z,7.00
2024-04-14T13:46:50.486Z,8.00
2024-04-14T13:48:52.426Z,7.75
2024-04-14T13:50:54.366Z,9.75
2024-04-14T13:52:56.444Z,3.00
2024-04-14T13:55:00.603Z,6.25
2024-04-14T13:57:02.901Z,7.50
2024-04-14T13:59:04.845Z,6.75
2024-04-14T14:01:11.349Z,8.50
2024-04-14T14:03:13.747Z,7.50
2024-04-14T14:05:15.724Z,8.25
2024-04-14T14:07:22.508Z,7.50
2024-04-14T14:09:24.775Z,6.75
2024-04-14T14:11:26.896Z,7.75
2024-04-14T14:13:30.573Z,5.25
2024-04-14T14:15:32.756Z,8.00
2024-04-14T14:17:34.785Z,6.00
2024-04-14T14:19:36.786Z,8.50
2024-04-14T14:21:38.794Z,8.00
2024-04-14T14:23:40.753Z,8.00
2024-04-14T14:25:49.280Z,9.25
2024-04-14T14:27:51.209Z,7.50
2024-04-14T14:29:53.038Z,9.00
2024-04-14T14:31:54.946Z,7.75
2024-04-14T14:34:15.690Z,7.00
2024-04-14T14:36:35.026Z,8.50
2024-04-14T14:38:39.674Z,4.75
2024-04-14T14:40:42.055Z,7.25
2024-04-14T14:42:43.934Z,7.50
2024-04-14T14:44:45.903Z,6.00
2024-04-14T14:46:47.932Z,6.50
2024-04-14T14:48:50.828Z,9.00
2024-04-14T14:50:52.761Z,9.75
2024-04-14T14:52:54.740Z,6.50
2024-04-14T14:54:57.075Z,7.00
2024-04-14T14:56:59.368Z,6.00
2024-04-14T14:59:01.287Z,7.00
2024-04-14T15:01:03.517Z,9.00
2024-04-14T15:03:05.658Z,8.00
2024-04-14T15:05:08.032Z,9.00
2024-04-14T15:07:10.138Z,6.75
2024-04-14T15:09:12.120Z,9.75
2024-04-14T15:11:21.382Z,9.00
2024-04-14T15:13:23.594Z,8.25
2024-04-14T15:15:25.560Z,5.75
2024-04-14T15:17:28.012Z,8.50
2024-04-14T15:19:34.505Z,6.25
2024-04-14T15:21:38.761Z,8.00
2024-04-14T15:23:40.865Z,9.00
2024-04-14T15:25:43.627Z,8.75
2024-04-14T15:27:45.620Z,8.00
2024-04-14T15:29:48.266Z,7.00
2024-04-14T15:31:50.355Z,9.00
2024-04-14T15:33:52.448Z,8.75
2024-04-14T15:35:54.458Z,7.00
2024-04-14T15:45:45.496Z,6.75
2024-04-14T15:47:47.537Z,7.25
2024-04-14T15:49:49.597Z,8.25
2024-04-14T15:51:51.448Z,6.75
2024-04-14T15:53:53.401Z,9.25
2024-04-14T15:55:55.440Z,7.50
2024-04-14T15:57:57.443Z,6.50
2024-04-14T15:59:59.417Z,7.25
2024-04-14T16:02:01.290Z,6.50
2024-04-14T16:04:03.477Z,8.75
2024-04-14T16:06:05.775Z,9.00
2024-04-14T16:08:07.633Z,5.75
2024-04-14T16:10:09.724Z,6.25
2024-04-14T16:12:11.715Z,10.25
2024-04-14T16:14:13.599Z,11.25
2024-04-14T16:16:15.975Z,9.00
2024-04-14T16:18:19.281Z,8.00
2024-04-14T16:20:21.307Z,10.25
2024-04-14T16:22:23.680Z,9.50
2024-04-14T16:24:25.625Z,10.25
2024-04-14T16:26:27.534Z,11.50
2024-04-14T16:28:29.540Z,8.50
2024-04-14T16:30:31.419Z,8.00
2024-04-14T16:32:33.522Z,8.25
2024-04-14T16:34:35.541Z,13.25
2024-04-14T16:36:40.885Z,12.75
2024-04-14T16:38:44.578Z,8.75
2024-04-14T16:40:46.868Z,9.75
2024-04-14T16:42:49.013Z,8.75
2024-04-14T16:44:50.980Z,12.00
2024-04-14T16:46:53.055Z,11.75
2024-04-14T16:48:55.028Z,11.00
2024-04-14T16:50:57.102Z,10.00
2024-04-14T16:52:59.063Z,10.75
2024-04-14T16:55:00.990Z,13.50
2024-04-14T16:57:03.086Z,11.25
2024-04-14T16:59:05.096Z,11.00
2024-04-14T17:01:07.330Z,12.50
2024-04-14T17:03:09.302Z,19.50
2024-04-14T17:05:11.334Z,12.00
2024-04-14T17:07:14.137Z,13.00
2024-04-14T17:09:16.070Z,13.50
2024-04-14T17:11:18.124Z,14.00
2024-04-14T17:13:20.424Z,12.25
2024-04-14T17:15:22.343Z,13.75
2024-04-14T17:17:24.266Z,15.00
2024-04-14T17:19:26.115Z,15.00
2024-04-14T17:21:27.972Z,12.25
2024-04-14T17:23:30.011Z,11.00
2024-04-14T17:25:31.900Z,13.00
2024-04-14T17:27:34.060Z,17.50
2024-04-14T17:29:36.237Z,11.50
2024-04-14T17:31:38.155Z,12.25
2024-04-14T17:33:40.399Z,9.75
2024-04-14T17:35:42.687Z,8.75
2024-04-14T17:37:45.050Z,10.00
2024-04-14T17:39:46.935Z,9.25
2024-04-14T17:41:49.156Z,11.25
2024-04-14T17:43:51.041Z,12.00
2024-04-14T17:45:52.990Z,14.25
2024-04-14T17:47:54.983Z,12.25
2024-04-14T17:49:56.881Z,13.00
2024-04-14T17:51:58.969Z,10.75
2024-04-14T17:54:01.186Z,8.50
2024-04-14T17:56:03.280Z,11.25
2024-04-14T17:58:05.236Z,9.00
2024-04-14T18:00:07.864Z,10.25
2024-04-14T18:02:09.854Z,8.25
2024-04-14T18:04:11.975Z,7.50
2024-04-14T18:06:14.172Z,8.75
2024-04-14T18:08:16.876Z,6.25
2024-04-14T18:10:23.575Z,9.25
2024-04-14T18:12:25.692Z,6.75
2024-04-14T18:14:27.593Z,7.00
2024-04-14T18:16:29.580Z,8.00
2024-04-14T18:18:34.608Z,7.75
2024-04-14T18:20:36.571Z,8.25
2024-04-14T18:22:38.422Z,6.50
2024-04-14T18:24:41.618Z,9.25
2024-04-14T18:26:44.528Z,9.75
2024-04-14T18:28:48.645Z,7.75
2024-04-14T18:30:50.821Z,9.25
2024-04-14T18:32:52.791Z,6.75
2024-04-14T18:34:54.666Z,9.50
2024-04-14T18:36:56.806Z,6.50
2024-04-14T18:38:58.917Z,5.25
2024-04-14T18:41:01.063Z,7.00
2024-04-14T18:43:03.321Z,7.25
2024-04-14T18:45:05.616Z,7.50
2024-04-14T18:47:11.690Z,8.50
2024-04-14T18:49:14.109Z,12.75
2024-04-14T18:51:15.991Z,9.00
2024-04-14T18:53:17.883Z,11.50
2024-04-14T18:55:20.036Z,9.00
2024-04-14T18:57:22.115Z,9.00
2024-04-14T18:59:24.742Z,15.50
2024-04-14T19:01:27.439Z,12.25
2024-04-14T19:03:30.239Z,17.25
2024-04-14T19:05:35.294Z,18.00
2024-04-14T19:07:37.271Z,15.75
2024-04-14T19:09:40.807Z,16.50
2024-04-14T19:11:42.950Z,11.25
2024-04-14T19:13:45.107Z,14.25
2024-04-14T19:15:48.837Z,15.25
2024-04-14T19:17:51.446Z,14.75
2024-04-14T19:19:53.812Z,13.50
2024-04-14T19:21:56.035Z,15.25
2024-04-14T19:23:57.950Z,14.50
2024-04-14T19:26:10.939Z,16.00
2024-04-14T19:28:16.398Z,15.75
2024-04-14T19:30:18.658Z,12.75
2024-04-14T19:32:20.896Z,9.00
2024-04-14T19:34:25.342Z,9.25
2024-04-14T19:36:29.596Z,10.00
2024-04-14T19:38:35.398Z,11.25
2024-04-14T19:40:37.331Z,12.75
2024-04-14T19:42:41.413Z,13.25
2024-04-14T19:44:43.523Z,13.75
2024-04-14T19:46:45.642Z,12.25
2024-04-14T19:48:47.767Z,12.25
2024-04-14T19:50:49.999Z,8.25
2024-04-14T19:52:53.029Z,17.75
2024-04-14T19:54:56.851Z,17.75
2024-04-14T19:56:59.053Z,14.00
2024-04-14T19:59:01.043Z,18.75
2024-04-14T20:01:05.431Z,16.25
2024-04-14T20:03:10.044Z,20.25
2024-04-14T20:05:12.044Z,19.25
2024-04-14T20:07:14.010Z,19.00
2024-04-14T20:09:16.236Z,17.00
2024-04-14T20:11:18.223Z,13.25
2024-04-14T20:13:20.223Z,5.25
2024-04-14T20:15:23.910Z,15.25
2024-04-14T20:17:25.944Z,13.75
2024-04-14T20:19:28.019Z,12.25
2024-04-14T20:21:30.391Z,16.00
2024-04-14T20:23:34.532Z,16.75
2024-04-14T20:25:36.422Z,15.50
2024-04-14T20:27:39.403Z,15.25
2024-04-14T20:29:41.437Z,13.00
2024-04-14T20:31:43.308Z,13.25
2024-04-14T20:33:46.979Z,16.75
2024-04-14T20:35:50.844Z,15.50
2024-04-14T20:37:52.762Z,15.00
2024-04-14T20:39:54.707Z,24.33
2024-04-14T20:41:56.592Z,23.33
2024-04-14T20:43:58.434Z,27.33
2024-04-14T20:46:00.460Z,30.33
2024-04-14T20:48:02.819Z,24.33
2024-04-14T20:50:05.058Z,23.33
2024-04-14T20:52:07.342Z,27.00
2024-04-14T20:54:09.380Z,25.00
2024-04-14T20:56:11.588Z,15.25
2024-04-14T20:58:13.767Z,16.75
2024-04-14T21:00:15.812Z,23.75
2024-04-14T21:02:18.324Z,22.00
2024-04-14T21:04:21.270Z,12.75
2024-04-14T21:06:25.527Z,15.50
2024-04-14T21:08:27.436Z,12.75
2024-04-14T21:10:30.372Z,12.25
2024-04-14T21:12:33.365Z,8.00
2024-04-14T21:14:35.226Z,14.50
2024-04-14T21:16:37.366Z,15.00
2024-04-14T21:18:42.237Z,9.25
2024-04-14T21:20:44.278Z,12.75
2024-04-14T21:22:47.403Z,13.75
2024-04-14T21:24:49.244Z,13.75
2024-04-14T21:26:51.301Z,11.75
2024-04-14T21:28:53.621Z,13.00
2024-04-14T21:30:56.477Z,12.50
2024-04-14T21:32:58.506Z,11.00
2024-04-14T21:35:00.684Z,15.50
2024-04-14T21:37:03.002Z,10.00
2024-04-14T21:39:05.250Z,11.00
2024-04-14T21:41:08.087Z,11.50
2024-04-14T21:43:10.003Z,9.50
2024-04-14T21:45:11.881Z,13.75
2024-04-14T21:47:13.956Z,14.25
2024-04-14T21:49:16.102Z,13.00
2024-04-14T21:51:18.102Z,11.00
2024-04-14T21:53:20.226Z,13.25
2024-04-14T21:55:22.425Z,14.25
2024-04-14T21:57:24.305Z,13.75
2024-04-14T21:59:27.148Z,17.25
2024-04-14T22:01:29.244Z,12.75
2024-04-14T22:03:31.325Z,11.00
2024-04-14T22:05:33.560Z,9.50
2024-04-14T22:07:35.470Z,11.00
2024-04-14T22:09:37.395Z,11.25
2024-04-14T22:11:39.532Z,13.50
2024-04-14T22:13:41.468Z,11.25
2024-04-14T22:15:43.706Z,14.25
2024-04-14T22:17:45.654Z,14.33
2024-04-14T22:19:47.637Z,19.00
2024-04-14T22:21:49.516Z,13.00
2024-04-14T22:23:51.735Z,16.67
2024-04-14T22:25:53.908Z,14.00
2024-04-14T22:27:55.820Z,16.67
2024-04-14T22:29:57.838Z,12.25
2024-04-14T22:31:59.818Z,15.67
2024-04-14T22:34:01.775Z,15.67
2024-04-14T22:36:04.005Z,18.67
2024-04-14T22:38:05.840Z,20.67
2024-04-14T22:40:08.773Z,15.67
2024-04-14T22:42:10.801Z,18.33
2024-04-14T22:44:14.421Z,10.33
2024-04-14T22:46:16.396Z,14.33
2024-04-14T22:48:18.562Z,20.67
2024-04-14T22:50:20.460Z,13.33
2024-04-14T22:52:22.379Z,11.00
2024-04-14T22:54:24.226Z,13.67
2024-04-14T22:56:26.082Z,13.67
2024-04-14T22:58:27.904Z,14.00
2024-04-14T23:00:29.836Z,17.00
2024-04-14T23:02:31.736Z,11.33
2024-04-14T23:04:33.905Z,15.33
2024-04-14T23:06:35.810Z,15.00
2024-04-14T23:08:38.229Z,13.33
2024-04-14T23:10:40.085Z,14.33
2024-04-14T23:12:42.700Z,14.33
2024-04-14T23:14:44.716Z,14.33
2024-04-14T23:16:46.658Z,12.00
2024-04-14T23:18:48.536Z,19.00
2024-04-14T23:20:50.430Z,17.00
2024-04-14T23:22:52.881Z,15.67
2024-04-14T23:24:54.888Z,16.00
2024-04-14T23:26:56.748Z,17.33
2024-04-14T23:28:58.855Z,15.33
2024-04-14T23:31:00.983Z,17.33
2024-04-14T23:33:03.035Z,19.33
2024-04-14T23:35:05.239Z,16.67
2024-04-14T23:37:07.477Z,13.33
2024-04-14T23:39:10.368Z,15.67
2024-04-14T23:41:12.261Z,17.67
2024-04-14T23:43:14.235Z,20.33
2024-04-14T23:45:16.153Z,17.00
2024-04-14T23:47:18.080Z,18.33
2024-04-14T23:49:21.235Z,19.33
2024-04-14T23:51:23.130Z,21.00
2024-04-14T23:53:25.100Z,20.67
2024-04-14T23:55:27.035Z,18.00
2024-04-14T23:57:29.123Z,19.00
2024-04-14T23:59:30.994Z,20.00
